Lexington, Michigan
Current Conditions -  °F | °C
As of 6:00 PM on Saturday 25 Oct 2014 (Local Time) from CYZR Reporting Station
Clear Clear  
Wind Chill: 18°   Ceiling: Unl
Heat Index: 18°   Visibility: 9mi
Dew Point:   Wind: 9mph
Humidity: 34%   Direction: 280°W
Pressure: 29.67"   Gusts: 18mph
Location:  43.27°N, 82.53°W
Report Text: CYZR 252200Z AUTO 28008G16KT 9SM CLR 18/02 A2967 RMK SLP048 DENSITY ALT 1300FT
Loading
Personal Weather Stations






























Interactive Weather Map
Tropical Storm Tracking
New forecast layout! Learn more

10-Day Weather Forecast

Advertisements
Track Severe Weather on mobile